sensor_id;sensor_type;location;lat;lon;timestamp;pressure;altitude;pressure_sealevel;temperature;humidity
13593;BME280;6867;50.998;4.250;2023-01-01T00:01:20;100305.41;;;16.57;51.77
13593;BME280;6867;50.998;4.250;2023-01-01T00:03:48;100302.38;;;16.54;51.55
13593;BME280;6867;50.998;4.250;2023-01-01T00:06:15;100319.50;;;16.59;51.56
13593;BME280;6867;50.998;4.250;2023-01-01T00:08:41;100311.72;;;16.68;51.28
13593;BME280;6867;50.998;4.250;2023-01-01T00:11:10;100308.28;;;16.46;51.47
13593;BME280;6867;50.998;4.250;2023-01-01T00:13:38;100320.84;;;16.57;51.60
13593;BME280;6867;50.998;4.250;2023-01-01T00:16:06;100299.16;;;16.57;51.13
13593;BME280;6867;50.998;4.250;2023-01-01T00:18:33;100303.19;;;16.54;51.48
13593;BME280;6867;50.998;4.250;2023-01-01T00:21:04;100296.50;;;16.67;50.99
13593;BME280;6867;50.998;4.250;2023-01-01T00:23:32;100289.94;;;16.58;50.64
13593;BME280;6867;50.998;4.250;2023-01-01T00:25:59;100285.66;;;16.67;50.68
13593;BME280;6867;50.998;4.250;2023-01-01T00:28:27;100274.94;;;16.45;50.75
13593;BME280;6867;50.998;4.250;2023-01-01T00:30:54;100293.13;;;16.50;50.70
13593;BME280;6867;50.998;4.250;2023-01-01T00:33:20;100284.00;;;16.61;50.77
13593;BME280;6867;50.998;4.250;2023-01-01T00:35:47;100263.75;;;16.36;50.68
13593;BME280;6867;50.998;4.250;2023-01-01T00:38:14;100275.06;;;16.60;50.51
13593;BME280;6867;50.998;4.250;2023-01-01T00:40:40;100276.41;;;16.63;50.31
13593;BME280;6867;50.998;4.250;2023-01-01T00:43:07;100276.53;;;16.41;50.85
13593;BME280;6867;50.998;4.250;2023-01-01T00:45:35;100280.56;;;16.38;50.77
13593;BME280;6867;50.998;4.250;2023-01-01T00:48:02;100296.19;;;16.58;50.56
13593;BME280;6867;50.998;4.250;2023-01-01T00:50:28;100278.50;;;16.51;50.46
13593;BME280;6867;50.998;4.250;2023-01-01T00:52:55;100250.09;;;16.58;50.02
13593;BME280;6867;50.998;4.250;2023-01-01T00:55:22;100235.13;;;16.51;49.69
13593;BME280;6867;50.998;4.250;2023-01-01T00:57:48;100232.97;;;16.53;49.63
13593;BME280;6867;50.998;4.250;2023-01-01T01:00:16;100241.63;;;16.87;49.19
13593;BME280;6867;50.998;4.250;2023-01-01T01:02:44;100235.84;;;16.73;49.21
13593;BME280;6867;50.998;4.250;2023-01-01T01:05:11;100195.03;;;16.53;49.03
13593;BME280;6867;50.998;4.250;2023-01-01T01:07:38;100229.25;;;16.64;49.18
13593;BME280;6867;50.998;4.250;2023-01-01T01:10:05;100236.47;;;16.85;48.88
13593;BME280;6867;50.998;4.250;2023-01-01T01:12:34;100215.91;;;16.89;48.76
13593;BME280;6867;50.998;4.250;2023-01-01T01:15:01;100221.97;;;16.69;48.97
13593;BME280;6867;50.998;4.250;2023-01-01T01:17:28;100212.16;;;16.63;48.76
13593;BME280;6867;50.998;4.250;2023-01-01T01:19:56;100220.06;;;16.70;48.98
13593;BME280;6867;50.998;4.250;2023-01-01T01:22:23;100214.78;;;16.85;48.58
13593;BME280;6867;50.998;4.250;2023-01-01T01:24:50;100211.59;;;16.99;48.29
13593;BME280;6867;50.998;4.250;2023-01-01T01:27:17;100215.41;;;17.03;48.11
13593;BME280;6867;50.998;4.250;2023-01-01T01:29:43;100213.50;;;17.03;48.21
13593;BME280;6867;50.998;4.250;2023-01-01T01:32:10;100208.88;;;16.99;47.98
13593;BME280;6867;50.998;4.250;2023-01-01T01:34:37;100192.81;;;16.92;48.05
13593;BME280;6867;50.998;4.250;2023-01-01T01:37:05;100231.19;;;17.11;48.32
13593;BME280;6867;50.998;4.250;2023-01-01T01:39:32;100250.59;;;16.87;48.76
13593;BME280;6867;50.998;4.250;2023-01-01T01:42:00;100258.03;;;17.07;48.35
13593;BME280;6867;50.998;4.250;2023-01-01T01:44:58;100245.34;;;17.18;48.27
13593;BME280;6867;50.998;4.250;2023-01-01T01:47:32;100266.88;;;17.35;48.22
13593;BME280;6867;50.998;4.250;2023-01-01T01:50:07;100281.69;;;17.17;48.46
13593;BME280;6867;50.998;4.250;2023-01-01T01:52:39;100301.81;;;17.26;48.19
13593;BME280;6867;50.998;4.250;2023-01-01T01:55:07;100317.34;;;17.31;48.97
13593;BME280;6867;50.998;4.250;2023-01-01T01:57:36;100349.31;;;17.24;49.53
13593;BME280;6867;50.998;4.250;2023-01-01T02:00:04;100341.56;;;17.00;49.45
13593;BME280;6867;50.998;4.250;2023-01-01T02:02:35;100307.28;;;16.57;49.89
13593;BME280;6867;50.998;4.250;2023-01-01T02:05:03;100330.16;;;16.66;50.07
13593;BME280;6867;50.998;4.250;2023-01-01T02:07:32;100333.97;;;16.97;49.48
13593;BME280;6867;50.998;4.250;2023-01-01T02:10:02;100335.00;;;16.96;49.65
13593;BME280;6867;50.998;4.250;2023-01-01T02:12:29;100334.72;;;16.92;49.65
13593;BME280;6867;50.998;4.250;2023-01-01T02:14:56;100328.16;;;16.88;49.61
13593;BME280;6867;50.998;4.250;2023-01-01T02:17:27;100336.69;;;17.02;49.59
13593;BME280;6867;50.998;4.250;2023-01-01T02:20:13;100342.31;;;16.90;49.74
13593;BME280;6867;50.998;4.250;2023-01-01T02:26:19;100364.75;;;17.18;49.89
13593;BME280;6867;50.998;4.250;2023-01-01T02:28:59;100360.34;;;17.07;50.07
13593;BME280;6867;50.998;4.250;2023-01-01T02:31:31;100369.78;;;16.99;50.22
13593;BME280;6867;50.998;4.250;2023-01-01T02:34:01;100381.09;;;16.91;50.47
13593;BME280;6867;50.998;4.250;2023-01-01T02:36:31;100409.84;;;16.92;50.76
13593;BME280;6867;50.998;4.250;2023-01-01T02:39:00;100409.97;;;17.02;50.39
13593;BME280;6867;50.998;4.250;2023-01-01T02:41:30;100401.81;;;17.02;50.35
13593;BME280;6867;50.998;4.250;2023-01-01T02:44:01;100419.16;;;17.01;50.70
13593;BME280;6867;50.998;4.250;2023-01-01T02:46:30;100407.59;;;17.11;50.58
13593;BME280;6867;50.998;4.250;2023-01-01T02:48:56;100420.03;;;17.07;50.81
13593;BME280;6867;50.998;4.250;2023-01-01T02:51:30;100418.00;;;16.92;50.87
13593;BME280;6867;50.998;4.250;2023-01-01T02:54:05;100420.38;;;16.83;51.10
13593;BME280;6867;50.998;4.250;2023-01-01T02:56:39;100429.72;;;16.98;51.09
13593;BME280;6867;50.998;4.250;2023-01-01T02:59:21;100418.31;;;16.96;51.01
13593;BME280;6867;50.998;4.250;2023-01-01T03:02:29;100424.88;;;17.05;51.30
13593;BME280;6867;50.998;4.250;2023-01-01T03:05:05;100424.81;;;16.95;51.16
13593;BME280;6867;50.998;4.250;2023-01-01T03:07:40;100454.81;;;17.10;51.14
13593;BME280;6867;50.998;4.250;2023-01-01T03:10:13;100459.34;;;17.04;51.48
13593;BME280;6867;50.998;4.250;2023-01-01T03:12:44;100436.28;;;17.02;51.27
13593;BME280;6867;50.998;4.250;2023-01-01T03:15:21;100446.47;;;16.89;51.79
13593;BME280;6867;50.998;4.250;2023-01-01T03:17:55;100453.38;;;17.02;51.70
13593;BME280;6867;50.998;4.250;2023-01-01T03:20:26;100478.44;;;17.14;51.95
13593;BME280;6867;50.998;4.250;2023-01-01T03:22:58;100492.34;;;16.91;52.61
13593;BME280;6867;50.998;4.250;2023-01-01T03:25:30;100489.44;;;16.98;52.40
13593;BME280;6867;50.998;4.250;2023-01-01T03:28:02;100497.56;;;16.98;52.61
13593;BME280;6867;50.998;4.250;2023-01-01T03:30:32;100492.06;;;16.92;52.29
13593;BME280;6867;50.998;4.250;2023-01-01T03:33:06;100499.16;;;16.93;52.56
13593;BME280;6867;50.998;4.250;2023-01-01T03:35:38;100494.59;;;16.99;52.42
13593;BME280;6867;50.998;4.250;2023-01-01T03:38:09;100517.22;;;17.10;52.82
13593;BME280;6867;50.998;4.250;2023-01-01T03:40:37;100496.28;;;16.78;52.94
13593;BME280;6867;50.998;4.250;2023-01-01T03:43:07;100497.50;;;16.71;53.07
13593;BME280;6867;50.998;4.250;2023-01-01T03:45:41;100530.97;;;17.03;52.93
13593;BME280;6867;50.998;4.250;2023-01-01T03:48:09;100537.72;;;16.74;53.33
13593;BME280;6867;50.998;4.250;2023-01-01T03:50:44;100556.22;;;16.77;53.83
13593;BME280;6867;50.998;4.250;2023-01-01T03:53:20;100539.16;;;16.81;53.24
13593;BME280;6867;50.998;4.250;2023-01-01T03:55:56;100552.69;;;16.59;53.84
13593;BME280;6867;50.998;4.250;2023-01-01T03:58:31;100575.88;;;16.89;53.82
13593;BME280;6867;50.998;4.250;2023-01-01T04:01:09;100574.53;;;16.48;54.67
13593;BME280;6867;50.998;4.250;2023-01-01T04:03:37;100594.88;;;16.28;55.38
13593;BME280;6867;50.998;4.250;2023-01-01T04:06:04;100567.63;;;16.79;54.37
13593;BME280;6867;50.998;4.250;2023-01-01T04:08:32;100559.16;;;16.97;54.10
13593;BME280;6867;50.998;4.250;2023-01-01T04:11:03;100577.25;;;16.69;54.67
13593;BME280;6867;50.998;4.250;2023-01-01T04:13:51;100579.72;;;16.93;54.19
13593;BME280;6867;50.998;4.250;2023-01-01T04:16:20;100587.09;;;16.98;54.17
13593;BME280;6867;50.998;4.250;2023-01-01T04:18:47;100556.75;;;16.35;54.75
13593;BME280;6867;50.998;4.250;2023-01-01T04:21:13;100630.44;;;15.64;57.20
13593;BME280;6867;50.998;4.250;2023-01-01T04:23:40;100634.13;;;15.92;56.93
13593;BME280;6867;50.998;4.250;2023-01-01T04:26:11;100648.75;;;15.74;57.24
13593;BME280;6867;50.998;4.250;2023-01-01T04:28:38;100652.53;;;15.90;57.22
13593;BME280;6867;50.998;4.250;2023-01-01T04:31:06;100651.88;;;16.16;56.66
13593;BME280;6867;50.998;4.250;2023-01-01T04:33:34;100654.16;;;16.08;56.69
13593;BME280;6867;50.998;4.250;2023-01-01T04:36:03;100658.22;;;16.22;56.28
13593;BME280;6867;50.998;4.250;2023-01-01T04:38:31;100662.06;;;16.26;56.09
13593;BME280;6867;50.998;4.250;2023-01-01T04:40:58;100666.06;;;16.40;56.15
13593;BME280;6867;50.998;4.250;2023-01-01T04:43:24;100651.06;;;16.16;56.41
13593;BME280;6867;50.998;4.250;2023-01-01T04:45:54;100669.88;;;16.23;56.65
13593;BME280;6867;50.998;4.250;2023-01-01T04:48:21;100667.78;;;15.96;57.00
13593;BME280;6867;50.998;4.250;2023-01-01T04:50:54;100679.63;;;15.90;57.57
13593;BME280;6867;50.998;4.250;2023-01-01T04:53:21;100695.38;;;15.76;58.06
13593;BME280;6867;50.998;4.250;2023-01-01T04:55:48;100715.75;;;15.96;57.88
13593;BME280;6867;50.998;4.250;2023-01-01T04:58:14;100709.78;;;16.10;57.51
13593;BME280;6867;50.998;4.250;2023-01-01T05:00:41;100703.34;;;16.16;57.17
13593;BME280;6867;50.998;4.250;2023-01-01T05:03:08;100716.81;;;15.94;57.59
13593;BME280;6867;50.998;4.250;2023-01-01T05:05:34;100727.72;;;16.00;57.69
13593;BME280;6867;50.998;4.250;2023-01-01T05:08:02;100717.91;;;16.27;57.21
13593;BME280;6867;50.998;4.250;2023-01-01T05:10:29;100701.38;;;15.95;57.33
13593;BME280;6867;50.998;4.250;2023-01-01T05:12:56;100713.97;;;16.18;57.28
13593;BME280;6867;50.998;4.250;2023-01-01T05:15:22;100714.28;;;16.22;57.32
13593;BME280;6867;50.998;4.250;2023-01-01T05:17:49;100703.94;;;16.35;56.94
13593;BME280;6867;50.998;4.250;2023-01-01T05:20:16;100713.56;;;16.43;56.89
13593;BME280;6867;50.998;4.250;2023-01-01T05:22:44;100705.66;;;16.41;56.64
13593;BME280;6867;50.998;4.250;2023-01-01T05:25:12;100729.06;;;16.48;56.88
13593;BME280;6867;50.998;4.250;2023-01-01T05:27:39;100737.34;;;16.41;57.05
13593;BME280;6867;50.998;4.250;2023-01-01T05:30:07;100738.03;;;16.48;56.86
13593;BME280;6867;50.998;4.250;2023-01-01T05:32:35;100750.59;;;16.37;57.04
13593;BME280;6867;50.998;4.250;2023-01-01T05:35:02;100752.06;;;16.45;57.22
13593;BME280;6867;50.998;4.250;2023-01-01T05:37:29;100754.28;;;16.31;57.21
13593;BME280;6867;50.998;4.250;2023-01-01T05:39:56;100756.94;;;16.43;57.26
13593;BME280;6867;50.998;4.250;2023-01-01T05:42:24;100763.56;;;16.52;57.22
13593;BME280;6867;50.998;4.250;2023-01-01T05:44:50;100782.94;;;16.27;58.00
13593;BME280;6867;50.998;4.250;2023-01-01T05:47:17;100801.00;;;16.22;58.17
13593;BME280;6867;50.998;4.250;2023-01-01T05:49:45;100809.53;;;16.13;58.46
13593;BME280;6867;50.998;4.250;2023-01-01T05:52:12;100796.50;;;16.27;58.36
13593;BME280;6867;50.998;4.250;2023-01-01T05:54:39;100820.13;;;16.15;58.97
13593;BME280;6867;50.998;4.250;2023-01-01T05:57:05;100843.19;;;16.17;59.18
13593;BME280;6867;50.998;4.250;2023-01-01T05:59:33;100870.22;;;16.12;59.80
13593;BME280;6867;50.998;4.250;2023-01-01T06:02:00;100891.81;;;15.96;60.56
13593;BME280;6867;50.998;4.250;2023-01-01T06:04:27;100919.66;;;15.79;61.63
13593;BME280;6867;50.998;4.250;2023-01-01T06:06:53;100937.94;;;15.72;62.69
13593;BME280;6867;50.998;4.250;2023-01-01T06:09:21;100946.63;;;15.62;63.70
13593;BME280;6867;50.998;4.250;2023-01-01T06:11:47;100971.34;;;15.31;65.06
13593;BME280;6867;50.998;4.250;2023-01-01T06:14:14;100972.06;;;15.26;65.89
13593;BME280;6867;50.998;4.250;2023-01-01T06:16:42;100980.94;;;15.03;67.01
13593;BME280;6867;50.998;4.250;2023-01-01T06:19:09;100978.50;;;15.13;67.11
13593;BME280;6867;50.998;4.250;2023-01-01T06:21:35;101002.44;;;14.98;68.17
13593;BME280;6867;50.998;4.250;2023-01-01T06:24:02;100989.41;;;15.07;67.76
13593;BME280;6867;50.998;4.250;2023-01-01T06:26:31;100984.59;;;15.09;68.24
13593;BME280;6867;50.998;4.250;2023-01-01T06:28:59;100981.88;;;15.09;68.21
13593;BME280;6867;50.998;4.250;2023-01-01T06:31:27;100984.00;;;15.07;68.30
13593;BME280;6867;50.998;4.250;2023-01-01T06:33:56;100978.72;;;15.12;68.58
13593;BME280;6867;50.998;4.250;2023-01-01T06:36:24;100989.16;;;15.08;68.60
13593;BME280;6867;50.998;4.250;2023-01-01T06:38:54;100997.88;;;14.99;69.23
13593;BME280;6867;50.998;4.250;2023-01-01T06:41:22;100992.09;;;14.95;69.33
13593;BME280;6867;50.998;4.250;2023-01-01T06:43:49;100989.38;;;14.95;69.57
13593;BME280;6867;50.998;4.250;2023-01-01T06:46:17;100989.63;;;14.93;69.55
13593;BME280;6867;50.998;4.250;2023-01-01T06:48:46;100997.03;;;14.98;69.56
13593;BME280;6867;50.998;4.250;2023-01-01T06:51:16;100994.59;;;14.97;69.86
13593;BME280;6867;50.998;4.250;2023-01-01T06:53:43;101008.78;;;14.92;70.09
13593;BME280;6867;50.998;4.250;2023-01-01T06:56:10;101008.94;;;14.97;70.19
13593;BME280;6867;50.998;4.250;2023-01-01T06:58:37;101001.44;;;15.11;69.85
13593;BME280;6867;50.998;4.250;2023-01-01T07:01:05;101009.44;;;15.29;69.23
13593;BME280;6867;50.998;4.250;2023-01-01T07:03:32;101000.63;;;15.34;68.73
13593;BME280;6867;50.998;4.250;2023-01-01T07:05:59;101009.44;;;15.29;68.95
13593;BME280;6867;50.998;4.250;2023-01-01T07:08:27;101005.91;;;15.29;69.11
13593;BME280;6867;50.998;4.250;2023-01-01T07:10:54;101002.72;;;15.20;69.27
13593;BME280;6867;50.998;4.250;2023-01-01T07:13:22;101011.91;;;15.19;69.04
13593;BME280;6867;50.998;4.250;2023-01-01T07:15:48;101015.81;;;15.23;69.04
13593;BME280;6867;50.998;4.250;2023-01-01T07:18:15;101012.28;;;15.23;69.22
13593;BME280;6867;50.998;4.250;2023-01-01T07:20:42;101021.22;;;15.23;68.80
13593;BME280;6867;50.998;4.250;2023-01-01T07:23:10;101017.34;;;15.31;68.85
13593;BME280;6867;50.998;4.250;2023-01-01T07:25:38;101015.69;;;15.30;68.98
13593;BME280;6867;50.998;4.250;2023-01-01T07:28:06;101011.22;;;15.24;68.87
13593;BME280;6867;50.998;4.250;2023-01-01T07:30:33;100999.09;;;15.26;68.94
13593;BME280;6867;50.998;4.250;2023-01-01T07:32:59;100994.03;;;15.30;68.42
13593;BME280;6867;50.998;4.250;2023-01-01T07:35:26;101009.09;;;15.26;67.89
13593;BME280;6867;50.998;4.250;2023-01-01T07:37:53;101006.38;;;15.26;67.72
13593;BME280;6867;50.998;4.250;2023-01-01T07:40:20;101000.53;;;15.40;67.28
13593;BME280;6867;50.998;4.250;2023-01-01T07:42:48;101014.28;;;15.51;66.52
13593;BME280;6867;50.998;4.250;2023-01-01T07:45:15;101009.44;;;15.29;66.35
13593;BME280;6867;50.998;4.250;2023-01-01T07:47:41;101006.88;;;15.34;66.19
13593;BME280;6867;50.998;4.250;2023-01-01T07:50:14;101000.72;;;15.15;66.51
13593;BME280;6867;50.998;4.250;2023-01-01T07:52:41;101010.28;;;15.18;66.66
13593;BME280;6867;50.998;4.250;2023-01-01T07:55:10;101014.16;;;15.22;66.57
13593;BME280;6867;50.998;4.250;2023-01-01T07:57:37;101016.06;;;15.22;66.35
13593;BME280;6867;50.998;4.250;2023-01-01T08:00:07;101010.50;;;15.28;66.50
13593;BME280;6867;50.998;4.250;2023-01-01T08:02:34;101017.56;;;15.17;66.68
13593;BME280;6867;50.998;4.250;2023-01-01T08:05:03;101032.28;;;14.91;67.09
13593;BME280;6867;50.998;4.250;2023-01-01T08:07:30;101063.53;;;14.57;68.42
13593;BME280;6867;50.998;4.250;2023-01-01T08:09:56;101076.16;;;14.63;68.28
13593;BME280;6867;50.998;4.250;2023-01-01T08:12:23;101094.91;;;14.58;68.59
13593;BME280;6867;50.998;4.250;2023-01-01T08:14:50;101092.16;;;14.65;68.29
13593;BME280;6867;50.998;4.250;2023-01-01T08:17:18;101092.16;;;14.65;68.64
13593;BME280;6867;50.998;4.250;2023-01-01T08:19:45;101081.63;;;14.57;69.22
13593;BME280;6867;50.998;4.250;2023-01-01T08:22:13;101085.97;;;14.58;68.83
13593;BME280;6867;50.998;4.250;2023-01-01T08:24:40;101103.78;;;14.47;69.27
13593;BME280;6867;50.998;4.250;2023-01-01T08:27:09;101107.63;;;14.58;69.00
13593;BME280;6867;50.998;4.250;2023-01-01T08:29:37;101108.66;;;14.57;68.98
13593;BME280;6867;50.998;4.250;2023-01-01T08:32:04;101126.09;;;14.61;69.36
13593;BME280;6867;50.998;4.250;2023-01-01T08:34:32;101112.41;;;14.74;68.65
13593;BME280;6867;50.998;4.250;2023-01-01T08:36:59;101128.50;;;14.69;69.01
13593;BME280;6867;50.998;4.250;2023-01-01T08:39:25;101120.06;;;14.77;68.50
13593;BME280;6867;50.998;4.250;2023-01-01T08:41:52;101115.03;;;14.81;68.72
13593;BME280;6867;50.998;4.250;2023-01-01T08:44:19;101106.88;;;14.99;67.99
13593;BME280;6867;50.998;4.250;2023-01-01T08:46:46;101096.50;;;14.96;67.87
13593;BME280;6867;50.998;4.250;2023-01-01T08:49:12;101111.34;;;14.93;68.14
13593;BME280;6867;50.998;4.250;2023-01-01T08:51:40;101108.47;;;15.07;67.89
13593;BME280;6867;50.998;4.250;2023-01-01T08:54:07;101113.50;;;15.03;67.55
13593;BME280;6867;50.998;4.250;2023-01-01T08:56:34;101111.41;;;15.05;67.51
13593;BME280;6867;50.998;4.250;2023-01-01T08:59:02;101108.03;;;14.91;67.64
13593;BME280;6867;50.998;4.250;2023-01-01T09:01:28;101131.41;;;14.86;68.19
13593;BME280;6867;50.998;4.250;2023-01-01T09:03:55;101123.03;;;15.06;67.28
13593;BME280;6867;50.998;4.250;2023-01-01T09:06:22;101114.63;;;15.56;66.21
13593;BME280;6867;50.998;4.250;2023-01-01T09:08:50;101122.84;;;15.49;66.15
13593;BME280;6867;50.998;4.250;2023-01-01T09:11:21;101112.72;;;15.56;65.34
13593;BME280;6867;50.998;4.250;2023-01-01T09:13:48;101111.75;;;15.51;65.45
13593;BME280;6867;50.998;4.250;2023-01-01T09:16:15;101121.31;;;15.53;65.65
13593;BME280;6867;50.998;4.250;2023-01-01T09:18:41;101121.50;;;15.40;65.37
13593;BME280;6867;50.998;4.250;2023-01-01T09:21:08;101127.63;;;15.35;65.53
13593;BME280;6867;50.998;4.250;2023-01-01T09:23:35;101134.47;;;15.50;65.77
13593;BME280;6867;50.998;4.250;2023-01-01T09:26:04;101129.03;;;15.38;66.02
13593;BME280;6867;50.998;4.250;2023-01-01T09:28:31;101143.25;;;15.33;65.80
13593;BME280;6867;50.998;4.250;2023-01-01T09:30:58;101123.59;;;15.26;65.50
13593;BME280;6867;50.998;4.250;2023-01-01T09:33:26;101114.81;;;15.42;65.42
13593;BME280;6867;50.998;4.250;2023-01-01T09:35:53;101112.13;;;15.42;65.32
13593;BME280;6867;50.998;4.250;2023-01-01T09:38:20;101101.16;;;15.49;65.20
13593;BME280;6867;50.998;4.250;2023-01-01T09:40:53;101114.47;;;15.51;65.04
13593;BME280;6867;50.998;4.250;2023-01-01T09:43:31;101100.19;;;15.74;64.50
13593;BME280;6867;50.998;4.250;2023-01-01T09:46:03;101103.53;;;15.57;64.71
13593;BME280;6867;50.998;4.250;2023-01-01T09:48:32;101133.94;;;15.17;65.69
13593;BME280;6867;50.998;4.250;2023-01-01T09:51:04;101120.09;;;15.37;65.33
13593;BME280;6867;50.998;4.250;2023-01-01T09:53:34;101125.00;;;15.29;65.33
13593;BME280;6867;50.998;4.250;2023-01-01T09:56:05;101142.66;;;15.01;65.98
13593;BME280;6867;50.998;4.250;2023-01-01T09:58:40;101141.66;;;15.44;64.96
13593;BME280;6867;50.998;4.250;2023-01-01T10:01:12;101116.06;;;15.70;63.85
13593;BME280;6867;50.998;4.250;2023-01-01T10:03:46;101126.44;;;15.73;64.41
13593;BME280;6867;50.998;4.250;2023-01-01T10:06:20;101124.28;;;15.63;64.08
13593;BME280;6867;50.998;4.250;2023-01-01T10:08:58;101116.56;;;15.37;64.50
13593;BME280;6867;50.998;4.250;2023-01-01T10:11:35;101148.47;;;15.16;65.72
13593;BME280;6867;50.998;4.250;2023-01-01T10:14:15;101152.28;;;15.57;65.07
13593;BME280;6867;50.998;4.250;2023-01-01T10:16:45;101139.66;;;15.81;64.26
13593;BME280;6867;50.998;4.250;2023-01-01T10:19:23;101135.19;;;15.99;64.24
13593;BME280;6867;50.998;4.250;2023-01-01T10:21:58;101109.50;;;16.13;63.32
13593;BME280;6867;50.998;4.250;2023-01-01T10:24:34;101113.03;;;16.37;62.72
13593;BME280;6867;50.998;4.250;2023-01-01T10:27:04;101094.13;;;16.65;61.91
13593;BME280;6867;50.998;4.250;2023-01-01T10:29:37;101083.31;;;16.42;61.76
13593;BME280;6867;50.998;4.250;2023-01-01T10:32:16;101082.38;;;16.48;61.71
13593;BME280;6867;50.998;4.250;2023-01-01T10:34:44;101076.06;;;16.59;60.86
13593;BME280;6867;50.998;4.250;2023-01-01T10:37:11;101097.94;;;16.41;61.32
13593;BME280;6867;50.998;4.250;2023-01-01T10:39:41;101104.78;;;16.43;61.66
13593;BME280;6867;50.998;4.250;2023-01-01T10:42:11;101115.25;;;16.52;61.61
13593;BME280;6867;50.998;4.250;2023-01-01T10:44:41;101115.66;;;16.84;61.03
13593;BME280;6867;50.998;4.250;2023-01-01T10:47:25;101071.31;;;17.35;59.67
13593;BME280;6867;50.998;4.250;2023-01-01T10:49:54;101058.53;;;17.19;59.06
13593;BME280;6867;50.998;4.250;2023-01-01T10:52:24;101077.78;;;17.34;59.01
13593;BME280;6867;50.998;4.250;2023-01-01T10:54:52;101040.78;;;17.62;57.86
13593;BME280;6867;50.998;4.250;2023-01-01T10:57:33;101039.06;;;17.73;57.69
13593;BME280;6867;50.998;4.250;2023-01-01T11:00:21;101053.22;;;17.58;57.86
13593;BME280;6867;50.998;4.250;2023-01-01T11:03:08;101064.91;;;17.75;57.93
13593;BME280;6867;50.998;4.250;2023-01-01T11:05:36;101058.72;;;17.29;58.24
13593;BME280;6867;50.998;4.250;2023-01-01T11:08:15;101051.22;;;17.36;57.94
13593;BME280;6867;50.998;4.250;2023-01-01T11:10:49;101044.06;;;17.30;57.97
13593;BME280;6867;50.998;4.250;2023-01-01T11:13:18;101038.72;;;17.69;57.47
13593;BME280;6867;50.998;4.250;2023-01-01T11:15:47;101023.34;;;17.75;57.26
13593;BME280;6867;50.998;4.250;2023-01-01T11:18:19;101019.81;;;17.57;57.47
13593;BME280;6867;50.998;4.250;2023-01-01T11:20:50;101049.84;;;17.51;58.21
13593;BME280;6867;50.998;4.250;2023-01-01T11:23:26;101018.50;;;17.77;57.01
13593;BME280;6867;50.998;4.250;2023-01-01T11:25:59;101019.06;;;17.79;57.19
13593;BME280;6867;50.998;4.250;2023-01-01T11:28:27;101042.34;;;17.58;57.42
13593;BME280;6867;50.998;4.250;2023-01-01T11:31:15;101054.22;;;17.52;58.05
13593;BME280;6867;50.998;4.250;2023-01-01T11:33:44;101060.22;;;17.87;57.47
13593;BME280;6867;50.998;4.250;2023-01-01T11:36:19;101048.06;;;18.12;56.42
13593;BME280;6867;50.998;4.250;2023-01-01T11:38:48;101064.09;;;17.91;57.05
13593;BME280;6867;50.998;4.250;2023-01-01T11:41:15;101048.28;;;17.88;56.63
13593;BME280;6867;50.998;4.250;2023-01-01T11:43:44;101045.56;;;17.88;56.43
13593;BME280;6867;50.998;4.250;2023-01-01T11:46:16;101038.88;;;17.62;56.97
13593;BME280;6867;50.998;4.250;2023-01-01T11:48:47;101045.13;;;17.97;56.42
13593;BME280;6867;50.998;4.250;2023-01-01T11:51:28;101062.59;;;17.67;56.98
13593;BME280;6867;50.998;4.250;2023-01-01T11:54:08;101067.28;;;17.55;57.24
13593;BME280;6867;50.998;4.250;2023-01-01T11:56:35;101053.47;;;17.73;56.95
13593;BME280;6867;50.998;4.250;2023-01-01T11:59:08;101072.81;;;17.60;57.32
13593;BME280;6867;50.998;4.250;2023-01-01T12:01:43;101070.91;;;17.43;57.44
13593;BME280;6867;50.998;4.250;2023-01-01T12:04:15;101088.09;;;17.49;58.20
13593;BME280;6867;50.998;4.250;2023-01-01T12:06:47;101054.38;;;17.45;57.54
13593;BME280;6867;50.998;4.250;2023-01-01T12:09:22;101076.00;;;17.40;58.44
13593;BME280;6867;50.998;4.250;2023-01-01T12:11:52;101088.19;;;17.37;58.59
13593;BME280;6867;50.998;4.250;2023-01-01T12:14:25;101063.66;;;17.49;58.19
13593;BME280;6867;50.998;4.250;2023-01-01T12:17:00;101060.63;;;17.00;59.12
13593;BME280;6867;50.998;4.250;2023-01-01T12:19:30;101065.91;;;16.78;59.43
13593;BME280;6867;50.998;4.250;2023-01-01T12:21:59;101092.59;;;16.58;60.18
13593;BME280;6867;50.998;4.250;2023-01-01T12:24:31;101100.47;;;16.71;60.15
13593;BME280;6867;50.998;4.250;2023-01-01T12:27:09;101094.22;;;16.82;60.22
13593;BME280;6867;50.998;4.250;2023-01-01T12:30:00;101100.47;;;16.83;60.32
13593;BME280;6867;50.998;4.250;2023-01-01T12:32:38;101088.44;;;16.79;60.37
13593;BME280;6867;50.998;4.250;2023-01-01T12:35:17;101080.69;;;16.99;59.96
13593;BME280;6867;50.998;4.250;2023-01-01T12:37:56;101057.34;;;16.98;59.68
13593;BME280;6867;50.998;4.250;2023-01-01T12:40:38;101065.91;;;17.07;59.70
13593;BME280;6867;50.998;4.250;2023-01-01T12:43:09;101072.16;;;16.79;60.27
13593;BME280;6867;50.998;4.250;2023-01-01T12:45:59;101083.88;;;16.96;60.22
13593;BME280;6867;50.998;4.250;2023-01-01T12:48:44;101081.47;;;17.11;59.75
13593;BME280;6867;50.998;4.250;2023-01-01T12:51:24;101091.03;;;16.85;59.97
13593;BME280;6867;50.998;4.250;2023-01-01T12:54:04;101087.72;;;17.12;59.72
13593;BME280;6867;50.998;4.250;2023-01-01T12:56:40;101066.59;;;17.14;59.80
13593;BME280;6867;50.998;4.250;2023-01-01T12:59:11;101066.25;;;17.10;59.73
13593;BME280;6867;50.998;4.250;2023-01-01T13:01:40;101045.38;;;17.11;59.19
13593;BME280;6867;50.998;4.250;2023-01-01T13:04:11;101054.13;;;17.01;59.94
13593;BME280;6867;50.998;4.250;2023-01-01T13:06:40;101052.50;;;17.00;59.93
13593;BME280;6867;50.998;4.250;2023-01-01T13:09:11;101036.59;;;16.92;59.47
13593;BME280;6867;50.998;4.250;2023-01-01T13:11:40;101041.28;;;16.97;59.69
13593;BME280;6867;50.998;4.250;2023-01-01T13:14:08;101030.47;;;17.13;59.31
13593;BME280;6867;50.998;4.250;2023-01-01T13:16:36;101030.81;;;17.17;59.65
13593;BME280;6867;50.998;4.250;2023-01-01T13:19:04;101055.63;;;17.09;59.74